sensor_id;sensor_type;location;lat;lon;timestamp;pressure;altitude;pressure_sealevel;temperature;humidity
61908;BME280;47864;52.526;19.672;2023-07-31T00:00:16;153442.34;;;17.73;100.00
61908;BME280;47864;52.526;19.672;2023-07-31T00:02:18;153463.94;;;17.82;100.00
61908;BME280;47864;52.526;19.672;2023-07-31T00:04:20;153486.81;;;17.91;100.00
61908;BME280;47864;52.526;19.672;2023-07-31T00:06:21;153500.78;;;17.97;100.00
61908;BME280;47864;52.526;19.672;2023-07-31T00:08:23;153509.72;;;18.00;100.00
61908;BME280;47864;52.526;19.672;2023-07-31T00:10:24;153510.97;;;18.01;100.00
61908;BME280;47864;52.526;19.672;2023-07-31T00:12:26;153467.78;;;17.83;100.00
61908;BME280;47864;52.526;19.672;2023-07-31T00:14:27;153477.91;;;17.87;100.00
61908;BME280;47864;52.526;19.672;2023-07-31T00:16:29;153491.91;;;17.93;100.00
61908;BME280;47864;52.526;19.672;2023-07-31T00:18:30;153498.25;;;17.96;100.00
61908;BME280;47864;52.526;19.672;2023-07-31T00:20:32;153472.88;;;17.85;100.00
61908;BME280;47864;52.526;19.672;2023-07-31T00:22:34;153481.72;;;17.89;100.00
61908;BME280;47864;52.526;19.672;2023-07-31T00:24:35;153451.25;;;17.77;100.00
61908;BME280;47864;52.526;19.672;2023-07-31T00:26:37;153455.09;;;17.78;100.00
61908;BME280;47864;52.526;19.672;2023-07-31T00:28:39;153447.44;;;17.75;100.00
61908;BME280;47864;52.526;19.672;2023-07-31T00:30:40;153458.84;;;17.80;100.00
61908;BME280;47864;52.526;19.672;2023-07-31T00:32:42;153439.81;;;17.72;100.00
61908;BME280;47864;52.526;19.672;2023-07-31T00:34:43;153475.41;;;17.86;100.00
61908;BME280;47864;52.526;19.672;2023-07-31T00:36:45;153469.03;;;17.84;100.00
61908;BME280;47864;52.526;19.672;2023-07-31T00:38:47;153456.31;;;17.79;100.00
61908;BME280;47864;52.526;19.672;2023-07-31T00:40:48;153442.34;;;17.73;100.00
61908;BME280;47864;52.526;19.672;2023-07-31T00:42:50;153448.72;;;17.76;100.00
61908;BME280;47864;52.526;19.672;2023-07-31T00:44:51;153448.72;;;17.76;100.00
61908;BME280;47864;52.526;19.672;2023-07-31T00:46:53;153450.00;;;17.76;100.00
61908;BME280;47864;52.526;19.672;2023-07-31T00:48:56;153446.16;;;17.75;100.00
61908;BME280;47864;52.526;19.672;2023-07-31T00:50:58;153401.66;;;17.57;100.00
61908;BME280;47864;52.526;19.672;2023-07-31T00:52:59;153353.38;;;17.38;100.00
61908;BME280;47864;52.526;19.672;2023-07-31T00:55:01;153345.78;;;17.35;100.00
61908;BME280;47864;52.526;19.672;2023-07-31T00:57:03;153319.09;;;17.24;100.00
61908;BME280;47864;52.526;19.672;2023-07-31T00:59:05;153246.72;;;16.95;100.00
61908;BME280;47864;52.526;19.672;2023-07-31T01:01:06;153272.09;;;17.05;100.00
61908;BME280;47864;52.526;19.672;2023-07-31T01:03:08;153272.09;;;17.05;100.00
61908;BME280;47864;52.526;19.672;2023-07-31T01:05:09;153275.91;;;17.07;100.00
61908;BME280;47864;52.526;19.672;2023-07-31T01:07:19;153297.50;;;17.16;100.00
61908;BME280;47864;52.526;19.672;2023-07-31T01:09:43;153310.22;;;17.21;100.00
61908;BME280;47864;52.526;19.672;2023-07-31T01:11:57;153279.72;;;17.08;100.00
61908;BME280;47864;52.526;19.672;2023-07-31T01:14:01;153292.41;;;17.13;100.00
61908;BME280;47864;52.526;19.672;2023-07-31T01:16:03;153272.09;;;17.05;100.00
61908;BME280;47864;52.526;19.672;2023-07-31T01:18:04;153274.63;;;17.06;100.00
61908;BME280;47864;52.526;19.672;2023-07-31T01:20:11;153281.00;;;17.09;100.00
61908;BME280;47864;52.526;19.672;2023-07-31T01:22:30;153278.44;;;17.08;100.00
61908;BME280;47864;52.526;19.672;2023-07-31T01:26:56;153277.19;;;17.07;100.00
61908;BME280;47864;52.526;19.672;2023-07-31T01:29:07;153242.91;;;16.94;100.00
61908;BME280;47864;52.526;19.672;2023-07-31T01:31:13;153258.13;;;17.00;100.00
61908;BME280;47864;52.526;19.672;2023-07-31T01:33:16;153232.72;;;16.90;100.00
61908;BME280;47864;52.526;19.672;2023-07-31T01:35:18;153263.22;;;17.02;100.00
61908;BME280;47864;52.526;19.672;2023-07-31T01:37:20;153249.28;;;16.96;100.00
61908;BME280;47864;52.526;19.672;2023-07-31T01:39:21;153298.78;;;17.16;100.00
61908;BME280;47864;52.526;19.672;2023-07-31T01:41:23;153315.28;;;17.23;100.00
61908;BME280;47864;52.526;19.672;2023-07-31T01:43:24;153310.22;;;17.21;100.00
61908;BME280;47864;52.526;19.672;2023-07-31T01:45:26;153344.50;;;17.34;100.00
61908;BME280;47864;52.526;19.672;2023-07-31T01:47:28;153326.72;;;17.27;100.00
61908;BME280;47864;52.526;19.672;2023-07-31T01:49:29;153359.72;;;17.40;100.00
61908;BME280;47864;52.526;19.672;2023-07-31T01:51:31;153358.47;;;17.40;100.00
61908;BME280;47864;52.526;19.672;2023-07-31T01:53:32;153338.13;;;17.32;100.00
61908;BME280;47864;52.526;19.672;2023-07-31T01:55:34;153355.91;;;17.39;100.00
61908;BME280;47864;52.526;19.672;2023-07-31T01:57:36;153361.00;;;17.41;100.00
61908;BME280;47864;52.526;19.672;2023-07-31T01:59:38;153349.59;;;17.36;100.00
61908;BME280;47864;52.526;19.672;2023-07-31T02:01:39;153322.91;;;17.26;100.00
61908;BME280;47864;52.526;19.672;2023-07-31T02:03:41;153302.59;;;17.18;100.00
61908;BME280;47864;52.526;19.672;2023-07-31T02:05:47;153282.28;;;17.09;100.00
61908;BME280;47864;52.526;19.672;2023-07-31T02:07:51;153236.53;;;16.91;100.00
61908;BME280;47864;52.526;19.672;2023-07-31T02:09:52;153287.38;;;17.11;100.00
61908;BME280;47864;52.526;19.672;2023-07-31T02:11:54;153279.72;;;17.08;100.00
61908;BME280;47864;52.526;19.672;2023-07-31T02:13:56;153258.13;;;17.00;100.00
61908;BME280;47864;52.526;19.672;2023-07-31T02:15:57;153298.78;;;17.16;100.00
61908;BME280;47864;52.526;19.672;2023-07-31T02:17:59;153317.81;;;17.24;100.00
61908;BME280;47864;52.526;19.672;2023-07-31T02:20:01;153310.22;;;17.21;100.00
61908;BME280;47864;52.526;19.672;2023-07-31T02:22:03;153335.59;;;17.31;100.00
61908;BME280;47864;52.526;19.672;2023-07-31T02:24:04;153300.03;;;17.17;100.00
61908;BME280;47864;52.526;19.672;2023-07-31T02:26:06;153328.00;;;17.28;100.00
61908;BME280;47864;52.526;19.672;2023-07-31T02:28:07;153306.41;;;17.19;100.00
61908;BME280;47864;52.526;19.672;2023-07-31T02:30:09;153301.31;;;17.17;100.00
61908;BME280;47864;52.526;19.672;2023-07-31T02:32:11;153300.03;;;17.17;100.00
61908;BME280;47864;52.526;19.672;2023-07-31T02:34:13;153287.38;;;17.11;100.00
61908;BME280;47864;52.526;19.672;2023-07-31T02:36:14;153260.69;;;17.01;100.00
61908;BME280;47864;52.526;19.672;2023-07-31T02:38:16;153275.91;;;17.07;100.00
61908;BME280;47864;52.526;19.672;2023-07-31T02:40:17;153293.69;;;17.14;100.00
61908;BME280;47864;52.526;19.672;2023-07-31T02:42:19;153291.13;;;17.13;100.00
61908;BME280;47864;52.526;19.672;2023-07-31T02:44:21;153301.31;;;17.17;100.00
61908;BME280;47864;52.526;19.672;2023-07-31T02:46:23;153321.63;;;17.25;100.00
61908;BME280;47864;52.526;19.672;2023-07-31T02:48:24;153310.22;;;17.21;100.00
61908;BME280;47864;52.526;19.672;2023-07-31T02:50:26;153284.81;;;17.10;100.00
61908;BME280;47864;52.526;19.672;2023-07-31T02:52:28;153325.44;;;17.27;100.00
61908;BME280;47864;52.526;19.672;2023-07-31T02:54:29;153343.22;;;17.34;100.00
61908;BME280;47864;52.526;19.672;2023-07-31T02:56:31;153366.09;;;17.43;100.00
61908;BME280;47864;52.526;19.672;2023-07-31T02:58:32;153345.78;;;17.35;100.00
61908;BME280;47864;52.526;19.672;2023-07-31T03:00:34;153359.72;;;17.40;100.00
61908;BME280;47864;52.526;19.672;2023-07-31T03:02:36;153391.50;;;17.53;100.00
61908;BME280;47864;52.526;19.672;2023-07-31T03:04:37;153432.22;;;17.69;100.00
61908;BME280;47864;52.526;19.672;2023-07-31T03:06:39;153429.66;;;17.68;100.00
61908;BME280;47864;52.526;19.672;2023-07-31T03:08:41;153444.91;;;17.74;100.00
61908;BME280;47864;52.526;19.672;2023-07-31T03:10:43;153470.31;;;17.84;100.00
61908;BME280;47864;52.526;19.672;2023-07-31T03:12:47;153469.03;;;17.84;100.00
61908;BME280;47864;52.526;19.672;2023-07-31T03:14:48;153475.41;;;17.86;100.00
61908;BME280;47864;52.526;19.672;2023-07-31T03:16:50;153488.09;;;17.92;100.00
61908;BME280;47864;52.526;19.672;2023-07-31T03:18:51;153475.41;;;17.86;100.00
61908;BME280;47864;52.526;19.672;2023-07-31T03:20:53;153433.47;;;17.70;100.00
61908;BME280;47864;52.526;19.672;2023-07-31T03:22:55;153446.16;;;17.75;100.00
61908;BME280;47864;52.526;19.672;2023-07-31T03:24:56;153404.19;;;17.58;100.00
61908;BME280;47864;52.526;19.672;2023-07-31T03:26:58;153405.47;;;17.59;100.00
61908;BME280;47864;52.526;19.672;2023-07-31T03:28:59;153405.47;;;17.59;100.00
61908;BME280;47864;52.526;19.672;2023-07-31T03:31:01;153383.88;;;17.50;100.00
61908;BME280;47864;52.526;19.672;2023-07-31T03:33:03;153383.88;;;17.50;100.00
61908;BME280;47864;52.526;19.672;2023-07-31T03:35:05;153353.38;;;17.38;100.00
61908;BME280;47864;52.526;19.672;2023-07-31T03:37:06;153314.00;;;17.22;100.00
61908;BME280;47864;52.526;19.672;2023-07-31T03:39:08;153258.13;;;17.00;100.00
61908;BME280;47864;52.526;19.672;2023-07-31T03:41:09;153288.63;;;17.12;100.00
61908;BME280;47864;52.526;19.672;2023-07-31T03:43:11;153293.69;;;17.14;100.00
61908;BME280;47864;52.526;19.672;2023-07-31T03:45:13;153286.09;;;17.11;100.00
61908;BME280;47864;52.526;19.672;2023-07-31T03:47:15;153330.53;;;17.29;100.00
61908;BME280;47864;52.526;19.672;2023-07-31T03:49:16;153343.22;;;17.34;100.00
61908;BME280;47864;52.526;19.672;2023-07-31T03:51:18;153335.59;;;17.31;100.00
61908;BME280;47864;52.526;19.672;2023-07-31T03:53:19;153330.53;;;17.29;100.00
61908;BME280;47864;52.526;19.672;2023-07-31T03:55:21;153306.41;;;17.19;100.00
61908;BME280;47864;52.526;19.672;2023-07-31T03:57:23;153340.69;;;17.33;100.00
61908;BME280;47864;52.526;19.672;2023-07-31T03:59:24;153376.22;;;17.47;100.00
61908;BME280;47864;52.526;19.672;2023-07-31T04:01:26;153367.38;;;17.43;100.00
61908;BME280;47864;52.526;19.672;2023-07-31T04:03:28;153381.31;;;17.49;100.00
61908;BME280;47864;52.526;19.672;2023-07-31T04:05:31;153405.47;;;17.59;100.00
61908;BME280;47864;52.526;19.672;2023-07-31T04:07:32;153387.69;;;17.52;100.00
61908;BME280;47864;52.526;19.672;2023-07-31T04:09:34;153387.69;;;17.52;100.00
61908;BME280;47864;52.526;19.672;2023-07-31T04:11:36;153404.19;;;17.58;100.00
61908;BME280;47864;52.526;19.672;2023-07-31T04:13:38;153366.09;;;17.43;100.00
61908;BME280;47864;52.526;19.672;2023-07-31T04:15:39;153382.59;;;17.49;100.00
61908;BME280;47864;52.526;19.672;2023-07-31T04:17:41;153388.97;;;17.52;100.00
61908;BME280;47864;52.526;19.672;2023-07-31T04:19:42;153395.28;;;17.55;100.00
61908;BME280;47864;52.526;19.672;2023-07-31T04:21:44;153396.56;;;17.55;100.00
61908;BME280;47864;52.526;19.672;2023-07-31T04:23:45;153397.81;;;17.56;100.00
61908;BME280;47864;52.526;19.672;2023-07-31T04:25:47;153396.56;;;17.55;100.00
61908;BME280;47864;52.526;19.672;2023-07-31T04:27:49;153402.91;;;17.58;100.00
61908;BME280;47864;52.526;19.672;2023-07-31T04:29:50;153435.97;;;17.71;100.00
61908;BME280;47864;52.526;19.672;2023-07-31T04:31:52;153455.09;;;17.78;100.00
61908;BME280;47864;52.526;19.672;2023-07-31T04:33:53;153448.72;;;17.76;100.00
61908;BME280;47864;52.526;19.672;2023-07-31T04:35:55;153423.28;;;17.66;100.00
61908;BME280;47864;52.526;19.672;2023-07-31T04:37:56;153458.84;;;17.80;100.00
61908;BME280;47864;52.526;19.672;2023-07-31T04:39:58;153441.06;;;17.73;100.00
61908;BME280;47864;52.526;19.672;2023-07-31T04:41:59;153481.72;;;17.89;100.00
61908;BME280;47864;52.526;19.672;2023-07-31T04:44:01;153461.41;;;17.81;100.00
61908;BME280;47864;52.526;19.672;2023-07-31T04:46:03;153485.56;;;17.91;100.00
61908;BME280;47864;52.526;19.672;2023-07-31T04:48:04;153498.25;;;17.96;100.00
61908;BME280;47864;52.526;19.672;2023-07-31T04:50:06;153563.06;;;18.21;100.00
61908;BME280;47864;52.526;19.672;2023-07-31T04:52:08;153571.97;;;18.25;100.00
61908;BME280;47864;52.526;19.672;2023-07-31T04:54:10;153547.81;;;18.15;100.00
61908;BME280;47864;52.526;19.672;2023-07-31T04:56:11;153566.88;;;18.23;100.00
61908;BME280;47864;52.526;19.672;2023-07-31T04:58:13;153508.44;;;18.00;100.00
61908;BME280;47864;52.526;19.672;2023-07-31T05:00:14;153532.59;;;18.09;100.00
61908;BME280;47864;52.526;19.672;2023-07-31T05:02:16;153556.75;;;18.19;100.00
61908;BME280;47864;52.526;19.672;2023-07-31T05:04:18;153565.59;;;18.22;100.00
61908;BME280;47864;52.526;19.672;2023-07-31T05:06:19;153547.81;;;18.15;100.00
61908;BME280;47864;52.526;19.672;2023-07-31T05:08:21;153561.78;;;18.21;100.00
61908;BME280;47864;52.526;19.672;2023-07-31T05:10:23;153578.34;;;18.28;100.00
61908;BME280;47864;52.526;19.672;2023-07-31T05:12:25;153596.13;;;18.35;100.00
61908;BME280;47864;52.526;19.672;2023-07-31T05:14:26;153569.44;;;18.24;100.00
61908;BME280;47864;52.526;19.672;2023-07-31T05:16:29;153559.28;;;18.20;100.00
61908;BME280;47864;52.526;19.672;2023-07-31T05:18:31;153622.78;;;18.45;100.00
61908;BME280;47864;52.526;19.672;2023-07-31T05:20:32;153635.53;;;18.50;100.00
61908;BME280;47864;52.526;19.672;2023-07-31T05:22:34;153638.06;;;18.51;100.00
61908;BME280;47864;52.526;19.672;2023-07-31T05:24:35;153602.44;;;18.37;100.00
61908;BME280;47864;52.526;19.672;2023-07-31T05:26:37;153592.31;;;18.33;100.00
61908;BME280;47864;52.526;19.672;2023-07-31T05:28:40;153591.03;;;18.33;100.00
61908;BME280;47864;52.526;19.672;2023-07-31T05:30:41;153593.59;;;18.34;100.00
61908;BME280;47864;52.526;19.672;2023-07-31T05:32:43;153611.38;;;18.41;100.00
61908;BME280;47864;52.526;19.672;2023-07-31T05:34:45;153597.41;;;18.35;100.00
61908;BME280;47864;52.526;19.672;2023-07-31T05:36:47;153655.91;;;18.58;100.00
61908;BME280;47864;52.526;19.672;2023-07-31T05:38:48;153706.75;;;18.79;100.00
61908;BME280;47864;52.526;19.672;2023-07-31T05:40:50;153747.44;;;18.95;100.00
61908;BME280;47864;52.526;19.672;2023-07-31T05:42:52;153747.44;;;18.95;100.00
61908;BME280;47864;52.526;19.672;2023-07-31T05:44:53;153706.75;;;18.79;100.00
61908;BME280;47864;52.526;19.672;2023-07-31T05:46:55;153686.41;;;18.71;100.00
61908;BME280;47864;52.526;19.672;2023-07-31T05:48:57;153672.44;;;18.65;100.00
61908;BME280;47864;52.526;19.672;2023-07-31T05:50:58;153724.59;;;18.86;100.00
61908;BME280;47864;52.526;19.672;2023-07-31T05:53:00;153734.72;;;18.90;100.00
61908;BME280;47864;52.526;19.672;2023-07-31T05:55:01;153737.28;;;18.91;100.00
61908;BME280;47864;52.526;19.672;2023-07-31T05:57:03;153767.78;;;19.03;100.00
61908;BME280;47864;52.526;19.672;2023-07-31T05:59:05;153718.22;;;18.83;100.00
61908;BME280;47864;52.526;19.672;2023-07-31T06:01:06;153725.81;;;18.86;100.00
61908;BME280;47864;52.526;19.672;2023-07-31T06:03:08;153788.13;;;19.11;100.00
61908;BME280;47864;52.526;19.672;2023-07-31T06:05:10;153736.00;;;18.90;100.00
61908;BME280;47864;52.526;19.672;2023-07-31T06:07:12;153752.53;;;18.97;100.00
61908;BME280;47864;52.526;19.672;2023-07-31T06:09:13;153788.13;;;19.11;100.00
61908;BME280;47864;52.526;19.672;2023-07-31T06:11:15;153855.53;;;19.38;100.00
61908;BME280;47864;52.526;19.672;2023-07-31T06:13:17;153837.72;;;19.31;100.00
61908;BME280;47864;52.526;19.672;2023-07-31T06:15:19;153845.38;;;19.34;100.00
61908;BME280;47864;52.526;19.672;2023-07-31T06:17:21;153812.28;;;19.21;100.00
61908;BME280;47864;52.526;19.672;2023-07-31T06:19:22;153831.34;;;19.28;100.00
61908;BME280;47864;52.526;19.672;2023-07-31T06:21:24;153785.63;;;19.10;100.00
61908;BME280;47864;52.526;19.672;2023-07-31T06:23:26;153781.78;;;19.09;100.00
61908;BME280;47864;52.526;19.672;2023-07-31T06:25:27;153808.47;;;19.19;100.00
61908;BME280;47864;52.526;19.672;2023-07-31T06:27:29;153845.38;;;19.34;100.00
61908;BME280;47864;52.526;19.672;2023-07-31T06:29:31;153873.31;;;19.45;100.00
61908;BME280;47864;52.526;19.672;2023-07-31T06:31:32;153888.69;;;19.51;100.00
61908;BME280;47864;52.526;19.672;2023-07-31T06:33:34;153910.31;;;19.60;100.00
61908;BME280;47864;52.526;19.672;2023-07-31T06:35:36;153958.63;;;19.79;100.00
61908;BME280;47864;52.526;19.672;2023-07-31T06:37:37;153995.50;;;19.94;100.00
61908;BME280;47864;52.526;19.672;2023-07-31T06:39:39;154082.03;;;20.28;100.00
61908;BME280;47864;52.526;19.672;2023-07-31T06:41:42;154113.94;;;20.41;100.00
61908;BME280;47864;52.526;19.672;2023-07-31T06:43:43;154293.41;;;21.12;100.00
61908;BME280;47864;52.526;19.672;2023-07-31T06:45:45;154290.84;;;21.11;100.00
61908;BME280;47864;52.526;19.672;2023-07-31T06:47:47;154242.47;;;20.92;100.00
61908;BME280;47864;52.526;19.672;2023-07-31T06:49:48;154167.38;;;20.62;100.00
61908;BME280;47864;52.526;19.672;2023-07-31T06:51:50;154097.34;;;20.34;100.00
61908;BME280;47864;52.526;19.672;2023-07-31T06:53:51;154070.59;;;20.24;100.00
61908;BME280;47864;52.526;19.672;2023-07-31T06:55:53;154070.59;;;20.24;100.00
61908;BME280;47864;52.526;19.672;2023-07-31T06:57:55;154131.75;;;20.48;100.00
61908;BME280;47864;52.526;19.672;2023-07-31T06:59:57;154148.28;;;20.55;100.00
61908;BME280;47864;52.526;19.672;2023-07-31T07:01:58;154106.28;;;20.38;100.00
61908;BME280;47864;52.526;19.672;2023-07-31T07:03:59;154157.22;;;20.58;100.00
61908;BME280;47864;52.526;19.672;2023-07-31T07:06:01;154182.63;;;20.68;100.00
61908;BME280;47864;52.526;19.672;2023-07-31T07:08:03;154227.19;;;20.86;100.00
61908;BME280;47864;52.526;19.672;2023-07-31T07:10:05;154215.75;;;20.81;100.00
61908;BME280;47864;52.526;19.672;2023-07-31T07:12:07;154248.84;;;20.95;100.00
61908;BME280;47864;52.526;19.672;2023-07-31T07:14:09;154273.03;;;21.04;100.00
61908;BME280;47864;52.526;19.672;2023-07-31T07:16:10;154315.09;;;21.21;100.00
61908;BME280;47864;52.526;19.672;2023-07-31T07:18:12;154404.28;;;21.56;100.00
61908;BME280;47864;52.526;19.672;2023-07-31T07:20:14;154507.50;;;21.97;100.00
61908;BME280;47864;52.526;19.672;2023-07-31T07:22:15;154448.84;;;21.74;97.64
61908;BME280;47864;52.526;19.672;2023-07-31T07:24:17;154479.41;;;21.86;97.95
61908;BME280;47864;52.526;19.672;2023-07-31T07:26:19;154512.56;;;21.99;94.82
61908;BME280;47864;52.526;19.672;2023-07-31T07:28:21;154459.03;;;21.78;95.88
61908;BME280;47864;52.526;19.672;2023-07-31T07:30:23;154467.97;;;21.82;100.00
61908;BME280;47864;52.526;19.672;2023-07-31T07:32:25;154583.94;;;22.28;94.98
61908;BME280;47864;52.526;19.672;2023-07-31T07:34:27;154659.09;;;22.58;93.19
61908;BME280;47864;52.526;19.672;2023-07-31T07:36:29;154738.22;;;22.89;95.95
61908;BME280;47864;52.526;19.672;2023-07-31T07:38:31;154716.53;;;22.81;88.28
61908;BME280;47864;52.526;19.672;2023-07-31T07:40:32;154620.88;;;22.43;85.68
61908;BME280;47864;52.526;19.672;2023-07-31T07:42:34;154547.00;;;22.13;85.25
61908;BME280;47864;52.526;19.672;2023-07-31T07:44:36;154552.09;;;22.15;83.74
61908;BME280;47864;52.526;19.672;2023-07-31T07:46:38;154589.03;;;22.30;84.00
61908;BME280;47864;52.526;19.672;2023-07-31T07:48:40;154480.69;;;21.87;82.12
61908;BME280;47864;52.526;19.672;2023-07-31T07:50:41;154479.41;;;21.86;81.13
61908;BME280;47864;52.526;19.672;2023-07-31T07:52:43;154410.59;;;21.59;84.80
61908;BME280;47864;52.526;19.672;2023-07-31T07:54:44;154490.84;;;21.91;88.28
61908;BME280;47864;52.526;19.672;2023-07-31T07:56:46;154445.03;;;21.73;87.56
61908;BME280;47864;52.526;19.672;2023-07-31T07:58:51;154550.81;;;22.15;90.76
61908;BME280;47864;52.526;19.672;2023-07-31T08:00:52;154652.75;;;22.55;87.18
61908;BME280;47864;52.526;19.672;2023-07-31T08:02:54;154631.09;;;22.47;80.70
61908;BME280;47864;52.526;19.672;2023-07-31T08:04:56;154580.09;;;22.26;81.97
61908;BME280;47864;52.526;19.672;2023-07-31T08:06:57;154589.03;;;22.30;81.17
61908;BME280;47864;52.526;19.672;2023-07-31T08:08:59;154554.59;;;22.16;83.46
61908;BME280;47864;52.526;19.672;2023-07-31T08:11:01;154504.91;;;21.96;81.24
61908;BME280;47864;52.526;19.672;2023-07-31T08:13:03;154473.00;;;21.84;81.06
61908;BME280;47864;52.526;19.672;2023-07-31T08:15:05;154473.00;;;21.84;78.71
61908;BME280;47864;52.526;19.672;2023-07-31T08:17:07;154350.75;;;21.35;77.69
61908;BME280;47864;52.526;19.672;2023-07-31T08:19:08;154329.09;;;21.26;80.60
61908;BME280;47864;52.526;19.672;2023-07-31T08:21:10;154386.44;;;21.49;79.86
61908;BME280;47864;52.526;19.672;2023-07-31T08:23:12;154395.31;;;21.53;78.58
61908;BME280;47864;52.526;19.672;2023-07-31T08:25:14;154414.44;;;21.60;78.97
61908;BME280;47864;52.526;19.672;2023-07-31T08:27:15;154424.66;;;21.64;79.78
61908;BME280;47864;52.526;19.672;2023-07-31T08:29:17;154409.31;;;21.58;76.77
61908;BME280;47864;52.526;19.672;2023-07-31T08:31:19;154445.03;;;21.73;77.83
61908;BME280;47864;52.526;19.672;2023-07-31T08:33:20;154409.31;;;21.58;77.58
61908;BME280;47864;52.526;19.672;2023-07-31T08:35:23;154334.19;;;21.29;76.59
61908;BME280;47864;52.526;19.672;2023-07-31T08:37:25;154344.41;;;21.33;79.25
61908;BME280;47864;52.526;19.672;2023-07-31T08:39:26;154404.28;;;21.56;78.04
61908;BME280;47864;52.526;19.672;2023-07-31T08:41:28;154434.81;;;21.69;78.68
61908;BME280;47864;52.526;19.672;2023-07-31T08:43:30;154457.75;;;21.78;79.30
61908;BME280;47864;52.526;19.672;2023-07-31T08:45:32;154465.41;;;21.81;77.30
61908;BME280;47864;52.526;19.672;2023-07-31T08:47:34;154524.03;;;22.04;76.66
61908;BME280;47864;52.526;19.672;2023-07-31T08:49:38;154540.59;;;22.11;77.52
61908;BME280;47864;52.526;19.672;2023-07-31T08:53:42;154485.78;;;21.89;77.84
61908;BME280;47864;52.526;19.672;2023-07-31T08:55:44;154506.22;;;21.97;75.86
61908;BME280;47864;52.526;19.672;2023-07-31T08:57:46;154465.41;;;21.81;75.88
61908;BME280;47864;52.526;19.672;2023-07-31T08:59:49;154446.31;;;21.73;77.00
61908;BME280;47864;52.526;19.672;2023-07-31T09:01:53;154372.41;;;21.44;75.24
61908;BME280;47864;52.526;19.672;2023-07-31T09:03:57;154406.81;;;21.57;75.07
61908;BME280;47864;52.526;19.672;2023-07-31T09:06:02;154345.63;;;21.33;74.25
61908;BME280;47864;52.526;19.672;2023-07-31T09:08:04;154409.31;;;21.58;76.02
61908;BME280;47864;52.526;19.672;2023-07-31T09:10:06;154457.75;;;21.78;75.59
61908;BME280;47864;52.526;19.672;2023-07-31T09:12:08;154465.41;;;21.81;74.15
61908;BME280;47864;52.526;19.672;2023-07-31T09:14:10;154530.44;;;22.07;76.34
61908;BME280;47864;52.526;19.672;2023-07-31T09:16:11;154466.69;;;21.81;75.66
61908;BME280;47864;52.526;19.672;2023-07-31T09:18:13;154595.38;;;22.32;75.89
61908;BME280;47864;52.526;19.672;2023-07-31T09:20:19;154548.25;;;22.14;71.88
61908;BME280;47864;52.526;19.672;2023-07-31T09:22:34;154609.41;;;22.38;73.61
61908;BME280;47864;52.526;19.672;2023-07-31T09:24:37;154692.25;;;22.71;71.71
61908;BME280;47864;52.526;19.672;2023-07-31T09:26:39;154712.69;;;22.79;71.17
61908;BME280;47864;52.526;19.672;2023-07-31T09:28:41;154715.25;;;22.80;68.79
61908;BME280;47864;52.526;19.672;2023-07-31T09:30:47;154687.16;;;22.69;67.31
61908;BME280;47864;52.526;19.672;2023-07-31T09:32:50;154735.66;;;22.88;70.17
61908;BME280;47864;52.526;19.672;2023-07-31T09:34:52;154761.09;;;22.98;68.94
61908;BME280;47864;52.526;19.672;2023-07-31T09:36:54;154622.16;;;22.43;69.16
61908;BME280;47864;52.526;19.672;2023-07-31T09:38:55;154637.44;;;22.49;72.02
61908;BME280;47864;52.526;19.672;2023-07-31T09:40:58;154669.31;;;22.62;72.48
61908;BME280;47864;52.526;19.672;2023-07-31T09:43:04;154701.22;;;22.74;70.50
61908;BME280;47864;52.526;19.672;2023-07-31T09:45:07;154767.50;;;23.01;70.02
61908;BME280;47864;52.526;19.672;2023-07-31T09:47:24;154724.16;;;22.84;68.89
61908;BME280;47864;52.526;19.672;2023-07-31T09:49:28;154656.53;;;22.57;69.27
61908;BME280;47864;52.526;19.672;2023-07-31T09:51:30;154661.66;;;22.59;71.71
61908;BME280;47864;52.526;19.672;2023-07-31T09:53:31;154678.22;;;22.65;69.64
61908;BME280;47864;52.526;19.672;2023-07-31T09:55:33;154766.22;;;23.00;71.52
61908;BME280;47864;52.526;19.672;2023-07-31T09:57:40;154804.47;;;23.15;68.80
61908;BME280;47864;52.526;19.672;2023-07-31T09:59:42;154872.06;;;23.42;66.70
61908;BME280;47864;52.526;19.672;2023-07-31T10:01:45;154911.63;;;23.58;68.23
61908;BME280;47864;52.526;19.672;2023-07-31T10:03:47;154967.72;;;23.80;68.03
61908;BME280;47864;52.526;19.672;2023-07-31T10:05:50;155022.59;;;24.02;69.87
61908;BME280;47864;52.526;19.672;2023-07-31T10:07:54;154998.38;;;23.93;68.71
61908;BME280;47864;52.526;19.672;2023-07-31T10:10:00;154845.25;;;23.32;66.31
61908;BME280;47864;52.526;19.672;2023-07-31T10:12:07;154809.56;;;23.18;67.44
61908;BME280;47864;52.526;19.672;2023-07-31T10:14:13;154750.94;;;22.94;66.72
61908;BME280;47864;52.526;19.672;2023-07-31T10:16:15;154808.28;;;23.17;67.35
61908;BME280;47864;52.526;19.672;2023-07-31T10:18:18;154920.56;;;23.62;66.30
61908;BME280;47864;52.526;19.672;2023-07-31T10:20:20;154958.84;;;23.77;67.09
61908;BME280;47864;52.526;19.672;2023-07-31T10:22:22;154935.88;;;23.68;65.60
61908;BME280;47864;52.526;19.672;2023-07-31T10:24:25;155003.47;;;23.95;67.54
61908;BME280;47864;52.526;19.672;2023-07-31T10:26:27;155031.50;;;24.06;65.05
61908;BME280;47864;52.526;19.672;2023-07-31T10:28:29;154939.72;;;23.69;64.24